sensor_id;sensor_type;location;lat;lon;timestamp;P1;durP1;ratioP1;P2;durP2;ratioP2
23115;SDS011;11727;52.134;5.052;2023-04-03T00:02:16;3.08;;;0.70;;
23115;SDS011;11727;52.134;5.052;2023-04-03T00:04:42;1.80;;;0.88;;
23115;SDS011;11727;52.134;5.052;2023-04-03T00:07:07;1.27;;;0.45;;
23115;SDS011;11727;52.134;5.052;2023-04-03T00:09:33;1.00;;;0.32;;
23115;SDS011;11727;52.134;5.052;2023-04-03T00:11:58;6.72;;;1.42;;
23115;SDS011;11727;52.134;5.052;2023-04-03T00:14:25;1.98;;;0.65;;
23115;SDS011;11727;52.134;5.052;2023-04-03T00:16:52;0.98;;;0.43;;
23115;SDS011;11727;52.134;5.052;2023-04-03T00:19:18;1.33;;;0.47;;
23115;SDS011;11727;52.134;5.052;2023-04-03T00:21:43;1.25;;;0.50;;
23115;SDS011;11727;52.134;5.052;2023-04-03T00:24:09;0.98;;;0.52;;
23115;SDS011;11727;52.134;5.052;2023-04-03T00:26:35;1.98;;;0.75;;
23115;SDS011;11727;52.134;5.052;2023-04-03T00:29:00;1.88;;;0.60;;
23115;SDS011;11727;52.134;5.052;2023-04-03T00:31:26;4.50;;;0.70;;
23115;SDS011;11727;52.134;5.052;2023-04-03T00:33:52;1.67;;;0.77;;
23115;SDS011;11727;52.134;5.052;2023-04-03T00:36:17;1.58;;;0.47;;
23115;SDS011;11727;52.134;5.052;2023-04-03T00:38:43;1.85;;;0.73;;
23115;SDS011;11727;52.134;5.052;2023-04-03T00:41:08;3.45;;;0.60;;
23115;SDS011;11727;52.134;5.052;2023-04-03T00:43:34;5.32;;;0.60;;
23115;SDS011;11727;52.134;5.052;2023-04-03T00:46:00;3.45;;;0.85;;
23115;SDS011;11727;52.134;5.052;2023-04-03T00:48:30;3.05;;;0.45;;
23115;SDS011;11727;52.134;5.052;2023-04-03T00:51:00;1.83;;;0.50;;
23115;SDS011;11727;52.134;5.052;2023-04-03T00:53:29;2.05;;;0.50;;
23115;SDS011;11727;52.134;5.052;2023-04-03T00:55:58;3.13;;;0.60;;
23115;SDS011;11727;52.134;5.052;2023-04-03T00:58:27;2.33;;;0.95;;
23115;SDS011;11727;52.134;5.052;2023-04-03T01:00:58;1.10;;;0.77;;
23115;SDS011;11727;52.134;5.052;2023-04-03T01:03:30;0.65;;;0.32;;
23115;SDS011;11727;52.134;5.052;2023-04-03T01:05:56;0.82;;;0.45;;
23115;SDS011;11727;52.134;5.052;2023-04-03T01:08:22;5.22;;;0.52;;
23115;SDS011;11727;52.134;5.052;2023-04-03T01:10:48;1.30;;;0.70;;
23115;SDS011;11727;52.134;5.052;2023-04-03T01:13:19;1.92;;;0.63;;
23115;SDS011;11727;52.134;5.052;2023-04-03T01:15:47;2.55;;;0.70;;
23115;SDS011;11727;52.134;5.052;2023-04-03T01:18:13;1.73;;;0.60;;
23115;SDS011;11727;52.134;5.052;2023-04-03T01:26:20;1.30;;;0.40;;
23115;SDS011;11727;52.134;5.052;2023-04-03T01:28:46;4.57;;;0.70;;
23115;SDS011;11727;52.134;5.052;2023-04-03T01:31:18;1.40;;;0.70;;
23115;SDS011;11727;52.134;5.052;2023-04-03T01:33:49;4.10;;;0.80;;
23115;SDS011;11727;52.134;5.052;2023-04-03T01:36:20;1.60;;;0.70;;
23115;SDS011;11727;52.134;5.052;2023-04-03T01:38:49;2.95;;;0.70;;
23115;SDS011;11727;52.134;5.052;2023-04-03T01:41:15;1.50;;;0.57;;
23115;SDS011;11727;52.134;5.052;2023-04-03T01:43:41;1.35;;;0.65;;
23115;SDS011;11727;52.134;5.052;2023-04-03T01:46:07;1.17;;;0.50;;
23115;SDS011;11727;52.134;5.052;2023-04-03T01:48:32;2.10;;;0.70;;
23115;SDS011;11727;52.134;5.052;2023-04-03T01:50:58;2.47;;;0.80;;
23115;SDS011;11727;52.134;5.052;2023-04-03T01:53:24;2.58;;;1.05;;
23115;SDS011;11727;52.134;5.052;2023-04-03T01:55:50;1.30;;;0.60;;
23115;SDS011;11727;52.134;5.052;2023-04-03T01:58:15;2.70;;;0.90;;
23115;SDS011;11727;52.134;5.052;2023-04-03T02:00:41;1.85;;;0.77;;
23115;SDS011;11727;52.134;5.052;2023-04-03T02:03:07;1.40;;;0.57;;
23115;SDS011;11727;52.134;5.052;2023-04-03T02:05:32;2.35;;;0.80;;
23115;SDS011;11727;52.134;5.052;2023-04-03T02:07:58;1.83;;;0.80;;
23115;SDS011;11727;52.134;5.052;2023-04-03T02:10:24;2.00;;;0.80;;
23115;SDS011;11727;52.134;5.052;2023-04-03T02:12:49;2.05;;;0.70;;
23115;SDS011;11727;52.134;5.052;2023-04-03T02:15:15;4.15;;;0.85;;
23115;SDS011;11727;52.134;5.052;2023-04-03T02:17:41;1.70;;;0.73;;
23115;SDS011;11727;52.134;5.052;2023-04-03T02:20:07;2.15;;;0.60;;
23115;SDS011;11727;52.134;5.052;2023-04-03T02:22:33;1.52;;;0.52;;
23115;SDS011;11727;52.134;5.052;2023-04-03T02:24:59;1.67;;;0.77;;
23115;SDS011;11727;52.134;5.052;2023-04-03T02:27:24;2.88;;;0.90;;
23115;SDS011;11727;52.134;5.052;2023-04-03T02:29:50;0.85;;;0.47;;
23115;SDS011;11727;52.134;5.052;2023-04-03T02:32:15;2.92;;;0.88;;
23115;SDS011;11727;52.134;5.052;2023-04-03T02:34:41;2.25;;;0.90;;
23115;SDS011;11727;52.134;5.052;2023-04-03T02:37:06;1.58;;;0.68;;
23115;SDS011;11727;52.134;5.052;2023-04-03T02:39:34;1.92;;;0.77;;
23115;SDS011;11727;52.134;5.052;2023-04-03T02:42:00;3.40;;;0.77;;
23115;SDS011;11727;52.134;5.052;2023-04-03T02:44:25;1.88;;;0.77;;
23115;SDS011;11727;52.134;5.052;2023-04-03T02:46:51;3.33;;;0.65;;
23115;SDS011;11727;52.134;5.052;2023-04-03T02:49:16;3.05;;;0.75;;
23115;SDS011;11727;52.134;5.052;2023-04-03T02:51:42;2.38;;;0.90;;
23115;SDS011;11727;52.134;5.052;2023-04-03T02:54:08;1.77;;;0.63;;
23115;SDS011;11727;52.134;5.052;2023-04-03T02:56:34;4.10;;;1.00;;
23115;SDS011;11727;52.134;5.052;2023-04-03T02:58:59;2.05;;;0.73;;
23115;SDS011;11727;52.134;5.052;2023-04-03T03:01:25;4.00;;;1.05;;
23115;SDS011;11727;52.134;5.052;2023-04-03T03:03:53;4.05;;;0.80;;
23115;SDS011;11727;52.134;5.052;2023-04-03T03:06:19;2.70;;;0.75;;
23115;SDS011;11727;52.134;5.052;2023-04-03T03:08:45;1.45;;;0.68;;
23115;SDS011;11727;52.134;5.052;2023-04-03T03:11:10;1.00;;;0.50;;
23115;SDS011;11727;52.134;5.052;2023-04-03T03:13:36;3.70;;;0.75;;
23115;SDS011;11727;52.134;5.052;2023-04-03T03:16:02;2.22;;;0.63;;
23115;SDS011;11727;52.134;5.052;2023-04-03T03:18:28;2.83;;;0.75;;
23115;SDS011;11727;52.134;5.052;2023-04-03T03:20:56;1.55;;;0.93;;
23115;SDS011;11727;52.134;5.052;2023-04-03T03:23:23;2.95;;;1.20;;
23115;SDS011;11727;52.134;5.052;2023-04-03T03:28:19;5.47;;;0.60;;
23115;SDS011;11727;52.134;5.052;2023-04-03T03:30:45;1.92;;;1.00;;
23115;SDS011;11727;52.134;5.052;2023-04-03T03:33:11;2.33;;;0.82;;
23115;SDS011;11727;52.134;5.052;2023-04-03T03:35:37;2.60;;;0.80;;
23115;SDS011;11727;52.134;5.052;2023-04-03T03:38:02;3.92;;;0.90;;
23115;SDS011;11727;52.134;5.052;2023-04-03T03:40:28;4.28;;;0.60;;
23115;SDS011;11727;52.134;5.052;2023-04-03T03:42:53;5.20;;;1.10;;
23115;SDS011;11727;52.134;5.052;2023-04-03T03:45:19;7.35;;;1.10;;
23115;SDS011;11727;52.134;5.052;2023-04-03T03:47:45;4.05;;;1.05;;
23115;SDS011;11727;52.134;5.052;2023-04-03T03:50:10;1.83;;;0.82;;
23115;SDS011;11727;52.134;5.052;2023-04-03T03:52:36;3.17;;;1.00;;
23115;SDS011;11727;52.134;5.052;2023-04-03T03:55:02;7.03;;;0.90;;
23115;SDS011;11727;52.134;5.052;2023-04-03T03:57:27;3.47;;;1.00;;
23115;SDS011;11727;52.134;5.052;2023-04-03T03:59:53;1.27;;;0.63;;
23115;SDS011;11727;52.134;5.052;2023-04-03T04:02:20;3.28;;;0.88;;
23115;SDS011;11727;52.134;5.052;2023-04-03T04:04:45;1.23;;;0.50;;
23115;SDS011;11727;52.134;5.052;2023-04-03T04:07:11;3.50;;;1.23;;
23115;SDS011;11727;52.134;5.052;2023-04-03T04:09:37;2.00;;;0.90;;
23115;SDS011;11727;52.134;5.052;2023-04-03T04:12:03;2.92;;;0.88;;
23115;SDS011;11727;52.134;5.052;2023-04-03T04:14:28;4.00;;;0.90;;
23115;SDS011;11727;52.134;5.052;2023-04-03T04:16:54;2.63;;;1.10;;
23115;SDS011;11727;52.134;5.052;2023-04-03T04:19:20;1.67;;;0.90;;
23115;SDS011;11727;52.134;5.052;2023-04-03T04:21:45;3.97;;;0.60;;
23115;SDS011;11727;52.134;5.052;2023-04-03T04:24:11;4.13;;;1.30;;
23115;SDS011;11727;52.134;5.052;2023-04-03T04:26:37;5.55;;;1.40;;
23115;SDS011;11727;52.134;5.052;2023-04-03T04:29:02;2.30;;;1.13;;
23115;SDS011;11727;52.134;5.052;2023-04-03T04:31:28;5.65;;;1.95;;
23115;SDS011;11727;52.134;5.052;2023-04-03T04:33:53;3.15;;;0.95;;
23115;SDS011;11727;52.134;5.052;2023-04-03T04:36:19;5.30;;;1.17;;
23115;SDS011;11727;52.134;5.052;2023-04-03T04:38:45;2.47;;;1.02;;
23115;SDS011;11727;52.134;5.052;2023-04-03T04:41:11;4.15;;;1.23;;
23115;SDS011;11727;52.134;5.052;2023-04-03T04:43:36;3.60;;;1.48;;
23115;SDS011;11727;52.134;5.052;2023-04-03T04:48:29;5.17;;;1.20;;
23115;SDS011;11727;52.134;5.052;2023-04-03T04:50:55;6.18;;;1.00;;
23115;SDS011;11727;52.134;5.052;2023-04-03T04:53:20;4.97;;;0.93;;
23115;SDS011;11727;52.134;5.052;2023-04-03T04:55:46;13.13;;;1.70;;
23115;SDS011;11727;52.134;5.052;2023-04-03T04:58:12;4.00;;;0.75;;
23115;SDS011;11727;52.134;5.052;2023-04-03T05:00:38;3.55;;;1.02;;
23115;SDS011;11727;52.134;5.052;2023-04-03T05:03:03;3.70;;;1.15;;
23115;SDS011;11727;52.134;5.052;2023-04-03T05:05:29;6.65;;;1.42;;
23115;SDS011;11727;52.134;5.052;2023-04-03T05:07:55;3.92;;;1.05;;
23115;SDS011;11727;52.134;5.052;2023-04-03T05:10:20;2.65;;;0.85;;
23115;SDS011;11727;52.134;5.052;2023-04-03T05:12:46;3.22;;;0.93;;
23115;SDS011;11727;52.134;5.052;2023-04-03T05:15:12;1.92;;;0.93;;
23115;SDS011;11727;52.134;5.052;2023-04-03T05:17:37;3.08;;;0.98;;
23115;SDS011;11727;52.134;5.052;2023-04-03T05:20:03;5.78;;;1.38;;
23115;SDS011;11727;52.134;5.052;2023-04-03T05:22:29;8.05;;;1.63;;
23115;SDS011;11727;52.134;5.052;2023-04-03T05:24:56;2.15;;;1.00;;
23115;SDS011;11727;52.134;5.052;2023-04-03T05:27:21;3.10;;;1.05;;
23115;SDS011;11727;52.134;5.052;2023-04-03T05:29:48;2.08;;;1.08;;
23115;SDS011;11727;52.134;5.052;2023-04-03T05:32:15;4.28;;;1.15;;
23115;SDS011;11727;52.134;5.052;2023-04-03T05:34:41;2.65;;;1.05;;
23115;SDS011;11727;52.134;5.052;2023-04-03T05:37:06;2.58;;;1.00;;
23115;SDS011;11727;52.134;5.052;2023-04-03T05:39:32;5.10;;;1.55;;
23115;SDS011;11727;52.134;5.052;2023-04-03T05:41:58;2.42;;;1.13;;
23115;SDS011;11727;52.134;5.052;2023-04-03T05:44:24;1.98;;;0.93;;
23115;SDS011;11727;52.134;5.052;2023-04-03T05:46:50;7.97;;;1.35;;
23115;SDS011;11727;52.134;5.052;2023-04-03T05:49:15;9.10;;;1.25;;
23115;SDS011;11727;52.134;5.052;2023-04-03T05:51:41;4.30;;;1.65;;
23115;SDS011;11727;52.134;5.052;2023-04-03T05:54:09;2.95;;;1.20;;
23115;SDS011;11727;52.134;5.052;2023-04-03T05:56:48;4.60;;;1.50;;
23115;SDS011;11727;52.134;5.052;2023-04-03T05:59:15;5.70;;;1.50;;
23115;SDS011;11727;52.134;5.052;2023-04-03T06:01:41;7.38;;;1.45;;
23115;SDS011;11727;52.134;5.052;2023-04-03T06:04:07;4.35;;;1.45;;
23115;SDS011;11727;52.134;5.052;2023-04-03T06:06:57;3.85;;;1.23;;
23115;SDS011;11727;52.134;5.052;2023-04-03T06:09:24;4.22;;;1.33;;
23115;SDS011;11727;52.134;5.052;2023-04-03T06:11:51;4.38;;;1.38;;
23115;SDS011;11727;52.134;5.052;2023-04-03T06:14:18;2.47;;;1.42;;
23115;SDS011;11727;52.134;5.052;2023-04-03T06:16:44;6.15;;;1.60;;
23115;SDS011;11727;52.134;5.052;2023-04-03T06:19:10;7.63;;;1.42;;
23115;SDS011;11727;52.134;5.052;2023-04-03T06:21:37;4.65;;;1.88;;
23115;SDS011;11727;52.134;5.052;2023-04-03T06:24:06;3.90;;;1.30;;
23115;SDS011;11727;52.134;5.052;2023-04-03T06:26:32;5.55;;;1.20;;
23115;SDS011;11727;52.134;5.052;2023-04-03T06:28:58;6.30;;;1.27;;
23115;SDS011;11727;52.134;5.052;2023-04-03T06:31:24;5.68;;;1.75;;
23115;SDS011;11727;52.134;5.052;2023-04-03T06:33:50;3.92;;;1.35;;
23115;SDS011;11727;52.134;5.052;2023-04-03T06:36:15;3.47;;;1.25;;
23115;SDS011;11727;52.134;5.052;2023-04-03T06:38:47;3.78;;;1.48;;
23115;SDS011;11727;52.134;5.052;2023-04-03T06:41:13;5.57;;;1.58;;
23115;SDS011;11727;52.134;5.052;2023-04-03T06:43:41;3.25;;;1.00;;
23115;SDS011;11727;52.134;5.052;2023-04-03T06:46:10;2.30;;;1.17;;
23115;SDS011;11727;52.134;5.052;2023-04-03T06:48:41;2.88;;;1.38;;
23115;SDS011;11727;52.134;5.052;2023-04-03T06:51:11;5.13;;;1.20;;
23115;SDS011;11727;52.134;5.052;2023-04-03T06:53:44;7.63;;;1.48;;
23115;SDS011;11727;52.134;5.052;2023-04-03T06:56:11;2.35;;;1.05;;
23115;SDS011;11727;52.134;5.052;2023-04-03T06:58:37;8.18;;;1.45;;
23115;SDS011;11727;52.134;5.052;2023-04-03T07:01:03;8.13;;;1.48;;
23115;SDS011;11727;52.134;5.052;2023-04-03T07:03:29;6.35;;;0.63;;
23115;SDS011;11727;52.134;5.052;2023-04-03T07:05:55;6.30;;;1.33;;
23115;SDS011;11727;52.134;5.052;2023-04-03T07:08:20;3.45;;;0.70;;
23115;SDS011;11727;52.134;5.052;2023-04-03T07:10:48;2.03;;;0.80;;
23115;SDS011;11727;52.134;5.052;2023-04-03T07:13:13;5.88;;;0.88;;
23115;SDS011;11727;52.134;5.052;2023-04-03T07:15:39;1.73;;;0.93;;
23115;SDS011;11727;52.134;5.052;2023-04-03T07:18:05;2.78;;;1.08;;
23115;SDS011;11727;52.134;5.052;2023-04-03T07:20:31;10.27;;;1.50;;
23115;SDS011;11727;52.134;5.052;2023-04-03T07:22:56;8.07;;;1.05;;
23115;SDS011;11727;52.134;5.052;2023-04-03T07:25:22;4.07;;;0.63;;
23115;SDS011;11727;52.134;5.052;2023-04-03T07:27:48;2.25;;;0.93;;
23115;SDS011;11727;52.134;5.052;2023-04-03T07:30:14;9.35;;;1.08;;
23115;SDS011;11727;52.134;5.052;2023-04-03T07:32:40;4.30;;;0.90;;
23115;SDS011;11727;52.134;5.052;2023-04-03T07:35:06;1.38;;;0.60;;
23115;SDS011;11727;52.134;5.052;2023-04-03T07:37:32;3.60;;;0.68;;
23115;SDS011;11727;52.134;5.052;2023-04-03T07:39:57;1.30;;;0.57;;
23115;SDS011;11727;52.134;5.052;2023-04-03T07:42:24;4.90;;;0.80;;
23115;SDS011;11727;52.134;5.052;2023-04-03T07:44:52;2.05;;;0.63;;
23115;SDS011;11727;52.134;5.052;2023-04-03T07:47:18;3.30;;;0.88;;
23115;SDS011;11727;52.134;5.052;2023-04-03T07:49:46;4.35;;;0.80;;
23115;SDS011;11727;52.134;5.052;2023-04-03T07:52:12;4.68;;;1.10;;
23115;SDS011;11727;52.134;5.052;2023-04-03T07:54:40;6.00;;;1.10;;
23115;SDS011;11727;52.134;5.052;2023-04-03T07:57:05;2.17;;;0.65;;
23115;SDS011;11727;52.134;5.052;2023-04-03T07:59:31;4.82;;;0.95;;
23115;SDS011;11727;52.134;5.052;2023-04-03T08:01:57;7.00;;;0.85;;
23115;SDS011;11727;52.134;5.052;2023-04-03T08:04:22;4.70;;;0.90;;
23115;SDS011;11727;52.134;5.052;2023-04-03T08:06:48;1.27;;;0.55;;
23115;SDS011;11727;52.134;5.052;2023-04-03T08:09:15;1.10;;;0.40;;
23115;SDS011;11727;52.134;5.052;2023-04-03T08:11:41;1.40;;;0.63;;
23115;SDS011;11727;52.134;5.052;2023-04-03T08:14:06;4.25;;;0.60;;
23115;SDS011;11727;52.134;5.052;2023-04-03T08:16:32;3.42;;;0.70;;
23115;SDS011;11727;52.134;5.052;2023-04-03T08:18:58;9.25;;;0.63;;
23115;SDS011;11727;52.134;5.052;2023-04-03T08:21:24;4.72;;;0.90;;
23115;SDS011;11727;52.134;5.052;2023-04-03T08:23:51;2.58;;;0.90;;
23115;SDS011;11727;52.134;5.052;2023-04-03T08:26:18;1.10;;;0.73;;
23115;SDS011;11727;52.134;5.052;2023-04-03T08:28:46;2.17;;;0.93;;
23115;SDS011;11727;52.134;5.052;2023-04-03T08:31:16;1.73;;;0.57;;
23115;SDS011;11727;52.134;5.052;2023-04-03T08:33:44;2.15;;;0.57;;
23115;SDS011;11727;52.134;5.052;2023-04-03T08:36:43;2.72;;;0.50;;
23115;SDS011;11727;52.134;5.052;2023-04-03T08:39:02;3.78;;;1.00;;
23115;SDS011;11727;52.134;5.052;2023-04-03T08:44:19;1.55;;;0.30;;
23115;SDS011;11727;52.134;5.052;2023-04-03T08:50:05;0.82;;;0.50;;
23115;SDS011;11727;52.134;5.052;2023-04-03T08:52:38;2.05;;;0.57;;
23115;SDS011;11727;52.134;5.052;2023-04-03T08:57:47;2.10;;;0.82;;
23115;SDS011;11727;52.134;5.052;2023-04-03T09:00:19;3.78;;;0.40;;
23115;SDS011;11727;52.134;5.052;2023-04-03T09:02:48;0.82;;;0.40;;
23115;SDS011;11727;52.134;5.052;2023-04-03T09:08:18;2.33;;;0.40;;
23115;SDS011;11727;52.134;5.052;2023-04-03T09:11:40;1.45;;;0.40;;
23115;SDS011;11727;52.134;5.052;2023-04-03T09:16:56;5.20;;;0.77;;
23115;SDS011;11727;52.134;5.052;2023-04-03T09:21:57;1.67;;;0.47;;
23115;SDS011;11727;52.134;5.052;2023-04-03T09:24:25;2.35;;;0.98;;
23115;SDS011;11727;52.134;5.052;2023-04-03T09:26:56;1.52;;;0.75;;
23115;SDS011;11727;52.134;5.052;2023-04-03T09:29:27;3.28;;;0.43;;
23115;SDS011;11727;52.134;5.052;2023-04-03T09:31:56;2.75;;;0.65;;
23115;SDS011;11727;52.134;5.052;2023-04-03T09:34:32;1.05;;;0.40;;
23115;SDS011;11727;52.134;5.052;2023-04-03T09:37:02;1.95;;;0.57;;
23115;SDS011;11727;52.134;5.052;2023-04-03T09:39:31;4.95;;;0.40;;
23115;SDS011;11727;52.134;5.052;2023-04-03T09:42:18;0.57;;;0.30;;
23115;SDS011;11727;52.134;5.052;2023-04-03T09:44:57;0.38;;;0.20;;
23115;SDS011;11727;52.134;5.052;2023-04-03T09:47:32;2.50;;;0.40;;
23115;SDS011;11727;52.134;5.052;2023-04-03T09:52:38;0.63;;;0.22;;
23115;SDS011;11727;52.134;5.052;2023-04-03T09:57:51;1.08;;;0.20;;
23115;SDS011;11727;52.134;5.052;2023-04-03T10:03:05;2.72;;;0.40;;
23115;SDS011;11727;52.134;5.052;2023-04-03T10:05:57;1.40;;;0.30;;
23115;SDS011;11727;52.134;5.052;2023-04-03T10:08:30;0.43;;;0.17;;
23115;SDS011;11727;52.134;5.052;2023-04-03T10:11:10;1.85;;;0.20;;
23115;SDS011;11727;52.134;5.052;2023-04-03T10:13:55;0.82;;;0.30;;
23115;SDS011;11727;52.134;5.052;2023-04-03T10:16:25;0.52;;;0.25;;
23115;SDS011;11727;52.134;5.052;2023-04-03T10:21:57;1.13;;;0.28;;
23115;SDS011;11727;52.134;5.052;2023-04-03T10:35:13;0.70;;;0.20;;
23115;SDS011;11727;52.134;5.052;2023-04-03T10:38:00;0.80;;;0.30;;
23115;SDS011;11727;52.134;5.052;2023-04-03T10:41:04;0.28;;;0.17;;
23115;SDS011;11727;52.134;5.052;2023-04-03T10:46:39;0.20;;;0.10;;
23115;SDS011;11727;52.134;5.052;2023-04-03T10:49:17;0.40;;;0.20;;
23115;SDS011;11727;52.134;5.052;2023-04-03T10:52:20;1.20;;;0.28;;
23115;SDS011;11727;52.134;5.052;2023-04-03T10:54:56;3.70;;;0.28;;
23115;SDS011;11727;52.134;5.052;2023-04-03T10:57:41;0.88;;;0.30;;
23115;SDS011;11727;52.134;5.052;2023-04-03T11:00:14;1.13;;;0.30;;
23115;SDS011;11727;52.134;5.052;2023-04-03T11:02:58;0.50;;;0.28;;
23115;SDS011;11727;52.134;5.052;2023-04-03T11:05:31;0.38;;;0.25;;
23115;SDS011;11727;52.134;5.052;2023-04-03T11:08:05;0.45;;;0.20;;
23115;SDS011;11727;52.134;5.052;2023-04-03T11:10:49;0.68;;;0.20;;
23115;SDS011;11727;52.134;5.052;2023-04-03T11:16:00;0.30;;;0.13;;
23115;SDS011;11727;52.134;5.052;2023-04-03T11:23:34;1.02;;;0.30;;
23115;SDS011;11727;52.134;5.052;2023-04-03T11:26:07;0.68;;;0.30;;
23115;SDS011;11727;52.134;5.052;2023-04-03T11:28:36;0.10;;;0.10;;
23115;SDS011;11727;52.134;5.052;2023-04-03T11:34:13;0.17;;;0.17;;
23115;SDS011;11727;52.134;5.052;2023-04-03T11:36:56;0.63;;;0.20;;
23115;SDS011;11727;52.134;5.052;2023-04-03T11:39:26;0.22;;;0.10;;
23115;SDS011;11727;52.134;5.052;2023-04-03T11:41:55;0.50;;;0.20;;
23115;SDS011;11727;52.134;5.052;2023-04-03T11:45:16;1.10;;;0.43;;
23115;SDS011;11727;52.134;5.052;2023-04-03T11:47:55;1.20;;;0.40;;
23115;SDS011;11727;52.134;5.052;2023-04-03T11:50:39;0.95;;;0.30;;
23115;SDS011;11727;52.134;5.052;2023-04-03T11:55:44;0.85;;;0.30;;
23115;SDS011;11727;52.134;5.052;2023-04-03T11:58:19;1.15;;;0.20;;
23115;SDS011;11727;52.134;5.052;2023-04-03T12:00:48;0.73;;;0.20;;
23115;SDS011;11727;52.134;5.052;2023-04-03T12:13:39;1.85;;;0.40;;
23115;SDS011;11727;52.134;5.052;2023-04-03T12:16:24;0.63;;;0.30;;
23115;SDS011;11727;52.134;5.052;2023-04-03T12:24:29;0.53;;;0.20;;
23115;SDS011;11727;52.134;5.052;2023-04-03T12:27:03;1.15;;;0.35;;
23115;SDS011;11727;52.134;5.052;2023-04-03T12:29:34;3.78;;;0.60;;
23115;SDS011;11727;52.134;5.052;2023-04-03T12:40:30;1.77;;;0.32;;
23115;SDS011;11727;52.134;5.052;2023-04-03T12:51:02;1.27;;;0.57;;
23115;SDS011;11727;52.134;5.052;2023-04-03T12:53:29;1.90;;;0.43;;
23115;SDS011;11727;52.134;5.052;2023-04-03T12:56:18;2.30;;;0.30;;
23115;SDS011;11727;52.134;5.052;2023-04-03T12:58:52;4.63;;;0.40;;
23115;SDS011;11727;52.134;5.052;2023-04-03T13:01:25;1.60;;;0.20;;
23115;SDS011;11727;52.134;5.052;2023-04-03T13:03:52;3.60;;;0.50;;
23115;SDS011;11727;52.134;5.052;2023-04-03T13:06:53;1.33;;;0.30;;
23115;SDS011;11727;52.134;5.052;2023-04-03T13:09:25;3.40;;;0.30;;
23115;SDS011;11727;52.134;5.052;2023-04-03T13:12:03;0.40;;;0.25;;
23115;SDS011;11727;52.134;5.052;2023-04-03T13:14:35;2.00;;;0.30;;
23115;SDS011;11727;52.134;5.052;2023-04-03T13:19:40;0.80;;;0.40;;
23115;SDS011;11727;52.134;5.052;2023-04-03T13:22:21;0.57;;;0.30;;
23115;SDS011;11727;52.134;5.052;2023-04-03T13:24:51;0.77;;;0.25;;
23115;SDS011;11727;52.134;5.052;2023-04-03T13:27:19;4.45;;;0.40;;
23115;SDS011;11727;52.134;5.052;2023-04-03T13:29:48;1.80;;;0.40;;
23115;SDS011;11727;52.134;5.052;2023-04-03T13:32:20;3.25;;;0.68;;
23115;SDS011;11727;52.134;5.052;2023-04-03T13:34:48;3.95;;;0.30;;
23115;SDS011;11727;52.134;5.052;2023-04-03T13:37:25;1.10;;;0.40;;
23115;SDS011;11727;52.134;5.052;2023-04-03T13:40:01;1.17;;;0.32;;
23115;SDS011;11727;52.134;5.052;2023-04-03T13:42:33;3.78;;;0.43;;
23115;SDS011;11727;52.134;5.052;2023-04-03T13:45:34;1.48;;;0.50;;
23115;SDS011;11727;52.134;5.052;2023-04-03T13:48:07;1.42;;;0.40;;
23115;SDS011;11727;52.134;5.052;2023-04-03T13:50:52;2.72;;;0.70;;
23115;SDS011;11727;52.134;5.052;2023-04-03T13:53:25;0.90;;;0.60;;
23115;SDS011;11727;52.134;5.052;2023-04-03T13:58:28;1.05;;;0.40;;
23115;SDS011;11727;52.134;5.052;2023-04-03T14:01:14;2.28;;;0.47;;
23115;SDS011;11727;52.134;5.052;2023-04-03T14:03:51;0.60;;;0.30;;
23115;SDS011;11727;52.134;5.052;2023-04-03T14:06:17;1.85;;;0.50;;
23115;SDS011;11727;52.134;5.052;2023-04-03T14:08:43;1.35;;;0.73;;
23115;SDS011;11727;52.134;5.052;2023-04-03T14:11:20;0.20;;;0.20;;
23115;SDS011;11727;52.134;5.052;2023-04-03T14:13:52;1.15;;;0.50;;
23115;SDS011;11727;52.134;5.052;2023-04-03T14:16:19;5.60;;;0.60;;
23115;SDS011;11727;52.134;5.052;2023-04-03T14:18:47;1.40;;;0.50;;
23115;SDS011;11727;52.134;5.052;2023-04-03T14:21:14;1.05;;;0.40;;
23115;SDS011;11727;52.134;5.052;2023-04-03T14:23:41;2.00;;;0.40;;
23115;SDS011;11727;52.134;5.052;2023-04-03T14:26:11;1.00;;;0.40;;
23115;SDS011;11727;52.134;5.052;2023-04-03T14:28:41;0.85;;;0.40;;
23115;SDS011;11727;52.134;5.052;2023-04-03T14:31:08;4.13;;;0.38;;
23115;SDS011;11727;52.134;5.052;2023-04-03T14:33:36;0.63;;;0.30;;
23115;SDS011;11727;52.134;5.052;2023-04-03T14:36:05;3.00;;;0.63;;
23115;SDS011;11727;52.134;5.052;2023-04-03T14:38:37;1.90;;;0.65;;
23115;SDS011;11727;52.134;5.052;2023-04-03T14:41:03;1.52;;;0.50;;
23115;SDS011;11727;52.134;5.052;2023-04-03T14:43:29;0.43;;;0.30;;
23115;SDS011;11727;52.134;5.052;2023-04-03T14:45:55;3.80;;;0.98;;
23115;SDS011;11727;52.134;5.052;2023-04-03T14:48:22;1.17;;;0.30;;
23115;SDS011;11727;52.134;5.052;2023-04-03T14:50:51;2.60;;;0.40;;
23115;SDS011;11727;52.134;5.052;2023-04-03T14:53:18;0.95;;;0.38;;
23115;SDS011;11727;52.134;5.052;2023-04-03T14:55:47;1.27;;;0.40;;
23115;SDS011;11727;52.134;5.052;2023-04-03T14:58:14;0.93;;;0.20;;
23115;SDS011;11727;52.134;5.052;2023-04-03T15:00:43;1.23;;;0.35;;
23115;SDS011;11727;52.134;5.052;2023-04-03T15:03:19;1.08;;;0.50;;
23115;SDS011;11727;52.134;5.052;2023-04-03T15:08:22;1.02;;;0.45;;
23115;SDS011;11727;52.134;5.052;2023-04-03T15:10:50;1.10;;;0.40;;
23115;SDS011;11727;52.134;5.052;2023-04-03T15:13:17;3.90;;;0.82;;
23115;SDS011;11727;52.134;5.052;2023-04-03T15:15:44;2.03;;;0.50;;
23115;SDS011;11727;52.134;5.052;2023-04-03T15:18:33;2.15;;;0.47;;
23115;SDS011;11727;52.134;5.052;2023-04-03T15:21:02;2.53;;;0.43;;
23115;SDS011;11727;52.134;5.052;2023-04-03T15:23:28;1.08;;;0.47;;
23115;SDS011;11727;52.134;5.052;2023-04-03T15:25:55;3.63;;;0.75;;
23115;SDS011;11727;52.134;5.052;2023-04-03T15:31:15;2.28;;;0.70;;
23115;SDS011;11727;52.134;5.052;2023-04-03T15:33:41;1.98;;;0.50;;
23115;SDS011;11727;52.134;5.052;2023-04-03T15:36:07;1.95;;;0.52;;
23115;SDS011;11727;52.134;5.052;2023-04-03T15:38:33;1.85;;;0.45;;
23115;SDS011;11727;52.134;5.052;2023-04-03T15:40:59;2.70;;;0.60;;
23115;SDS011;11727;52.134;5.052;2023-04-03T15:43:25;2.50;;;0.55;;
23115;SDS011;11727;52.134;5.052;2023-04-03T15:45:50;1.63;;;0.77;;
23115;SDS011;11727;52.134;5.052;2023-04-03T15:48:16;1.40;;;0.40;;
23115;SDS011;11727;52.134;5.052;2023-04-03T15:50:42;1.67;;;0.40;;
23115;SDS011;11727;52.134;5.052;2023-04-03T15:53:09;0.77;;;0.40;;
23115;SDS011;11727;52.134;5.052;2023-04-03T15:55:35;2.33;;;0.75;;
23115;SDS011;11727;52.134;5.052;2023-04-03T15:58:02;0.57;;;0.30;;
23115;SDS011;11727;52.134;5.052;2023-04-03T16:00:29;2.72;;;0.60;;
23115;SDS011;11727;52.134;5.052;2023-04-03T16:02:57;2.50;;;0.50;;
23115;SDS011;11727;52.134;5.052;2023-04-03T16:05:30;2.75;;;0.85;;
23115;SDS011;11727;52.134;5.052;2023-04-03T16:07:57;1.33;;;0.45;;
23115;SDS011;11727;52.134;5.052;2023-04-03T16:12:51;1.20;;;0.47;;
23115;SDS011;11727;52.134;5.052;2023-04-03T16:15:16;4.07;;;0.80;;
23115;SDS011;11727;52.134;5.052;2023-04-03T16:17:42;3.38;;;1.00;;
23115;SDS011;11727;52.134;5.052;2023-04-03T16:20:08;1.63;;;0.50;;
23115;SDS011;11727;52.134;5.052;2023-04-03T16:22:35;2.65;;;0.82;;
23115;SDS011;11727;52.134;5.052;2023-04-03T16:25:02;2.07;;;0.67;;
23115;SDS011;11727;52.134;5.052;2023-04-03T16:27:29;1.33;;;0.45;;
23115;SDS011;11727;52.134;5.052;2023-04-03T16:29:56;0.63;;;0.40;;
23115;SDS011;11727;52.134;5.052;2023-04-03T16:32:22;1.00;;;0.40;;
23115;SDS011;11727;52.134;5.052;2023-04-03T16:34:49;1.20;;;0.70;;
23115;SDS011;11727;52.134;5.052;2023-04-03T16:37:15;3.85;;;0.75;;
23115;SDS011;11727;52.134;5.052;2023-04-03T16:39:41;1.80;;;0.65;;
23115;SDS011;11727;52.134;5.052;2023-04-03T16:42:07;5.53;;;1.00;;
23115;SDS011;11727;52.134;5.052;2023-04-03T16:44:34;1.00;;;0.40;;
23115;SDS011;11727;52.134;5.052;2023-04-03T16:47:00;1.80;;;0.55;;
23115;SDS011;11727;52.134;5.052;2023-04-03T16:49:26;1.70;;;0.50;;
23115;SDS011;11727;52.134;5.052;2023-04-03T16:51:57;1.05;;;0.55;;